sensor_id;sensor_type;location;lat;lon;timestamp;pressure;altitude;pressure_sealevel;temperature
11849;BMP180;5983;49.966;8.052;2022-09-09T00:02:04;100047.00;;;16.90
11849;BMP180;5983;49.966;8.052;2022-09-09T00:04:35;100053.00;;;16.90
11849;BMP180;5983;49.966;8.052;2022-09-09T00:07:10;100048.00;;;16.80
11849;BMP180;5983;49.966;8.052;2022-09-09T00:09:46;100050.00;;;16.80
11849;BMP180;5983;49.966;8.052;2022-09-09T00:12:24;100044.00;;;16.80
11849;BMP180;5983;49.966;8.052;2022-09-09T00:14:57;100037.00;;;16.90
11849;BMP180;5983;49.966;8.052;2022-09-09T00:17:36;100037.00;;;16.80
11849;BMP180;5983;49.966;8.052;2022-09-09T00:20:14;100036.00;;;16.80
11849;BMP180;5983;49.966;8.052;2022-09-09T00:22:52;100045.00;;;16.70
11849;BMP180;5983;49.966;8.052;2022-09-09T00:25:28;100046.00;;;16.70
11849;BMP180;5983;49.966;8.052;2022-09-09T00:28:00;100046.00;;;16.70
11849;BMP180;5983;49.966;8.052;2022-09-09T00:30:34;100041.00;;;16.70
11849;BMP180;5983;49.966;8.052;2022-09-09T00:33:11;100034.00;;;16.60
11849;BMP180;5983;49.966;8.052;2022-09-09T00:35:48;100035.00;;;16.60
11849;BMP180;5983;49.966;8.052;2022-09-09T00:38:20;100033.00;;;16.60
11849;BMP180;5983;49.966;8.052;2022-09-09T00:40:53;100037.00;;;16.60
11849;BMP180;5983;49.966;8.052;2022-09-09T00:43:28;100034.00;;;16.50
11849;BMP180;5983;49.966;8.052;2022-09-09T00:46:43;100020.00;;;16.50
11849;BMP180;5983;49.966;8.052;2022-09-09T00:49:28;100026.00;;;16.50
11849;BMP180;5983;49.966;8.052;2022-09-09T00:52:11;100028.00;;;16.40
11849;BMP180;5983;49.966;8.052;2022-09-09T00:54:52;100030.00;;;16.30
11849;BMP180;5983;49.966;8.052;2022-09-09T00:57:27;100027.00;;;16.30
11849;BMP180;5983;49.966;8.052;2022-09-09T01:00:18;100029.00;;;16.30
11849;BMP180;5983;49.966;8.052;2022-09-09T01:03:02;100027.00;;;16.30
11849;BMP180;5983;49.966;8.052;2022-09-09T01:05:39;100030.00;;;16.30
11849;BMP180;5983;49.966;8.052;2022-09-09T01:08:28;100021.00;;;16.30
11849;BMP180;5983;49.966;8.052;2022-09-09T01:11:00;100032.00;;;16.20
11849;BMP180;5983;49.966;8.052;2022-09-09T01:13:31;100026.00;;;16.20
11849;BMP180;5983;49.966;8.052;2022-09-09T01:16:04;100022.00;;;16.20
11849;BMP180;5983;49.966;8.052;2022-09-09T01:18:38;100029.00;;;16.10
11849;BMP180;5983;49.966;8.052;2022-09-09T01:21:22;100024.00;;;16.10
11849;BMP180;5983;49.966;8.052;2022-09-09T01:24:19;100015.00;;;16.10
11849;BMP180;5983;49.966;8.052;2022-09-09T01:26:52;100025.00;;;16.10
11849;BMP180;5983;49.966;8.052;2022-09-09T01:29:21;100015.00;;;16.00
11849;BMP180;5983;49.966;8.052;2022-09-09T01:31:57;100019.00;;;16.00
11849;BMP180;5983;49.966;8.052;2022-09-09T01:34:28;100024.00;;;16.00
11849;BMP180;5983;49.966;8.052;2022-09-09T01:37:02;100015.00;;;16.00
11849;BMP180;5983;49.966;8.052;2022-09-09T01:39:31;100011.00;;;16.00
11849;BMP180;5983;49.966;8.052;2022-09-09T01:42:00;100018.00;;;16.00
11849;BMP180;5983;49.966;8.052;2022-09-09T01:44:29;100022.00;;;16.00
11849;BMP180;5983;49.966;8.052;2022-09-09T01:46:57;100024.00;;;16.00
11849;BMP180;5983;49.966;8.052;2022-09-09T01:49:27;100032.00;;;15.90
11849;BMP180;5983;49.966;8.052;2022-09-09T01:51:57;100029.00;;;15.90
11849;BMP180;5983;49.966;8.052;2022-09-09T01:54:29;100034.00;;;15.80
11849;BMP180;5983;49.966;8.052;2022-09-09T01:57:10;100044.00;;;15.80
11849;BMP180;5983;49.966;8.052;2022-09-09T01:59:50;100038.00;;;15.80
11849;BMP180;5983;49.966;8.052;2022-09-09T02:02:26;100039.00;;;15.80
11849;BMP180;5983;49.966;8.052;2022-09-09T02:05:02;100039.00;;;15.80
11849;BMP180;5983;49.966;8.052;2022-09-09T02:07:40;100032.00;;;15.80
11849;BMP180;5983;49.966;8.052;2022-09-09T02:10:12;100034.00;;;15.80
11849;BMP180;5983;49.966;8.052;2022-09-09T02:12:49;100034.00;;;15.80
11849;BMP180;5983;49.966;8.052;2022-09-09T02:15:23;100048.00;;;15.90
11849;BMP180;5983;49.966;8.052;2022-09-09T02:17:58;100037.00;;;15.90
11849;BMP180;5983;49.966;8.052;2022-09-09T02:20:31;100045.00;;;15.80
11849;BMP180;5983;49.966;8.052;2022-09-09T02:23:00;100031.00;;;15.90
11849;BMP180;5983;49.966;8.052;2022-09-09T02:25:29;100025.00;;;15.90
11849;BMP180;5983;49.966;8.052;2022-09-09T02:27:58;100020.00;;;15.80
11849;BMP180;5983;49.966;8.052;2022-09-09T02:30:28;100031.00;;;15.80
11849;BMP180;5983;49.966;8.052;2022-09-09T02:32:58;100028.00;;;15.70
11849;BMP180;5983;49.966;8.052;2022-09-09T02:35:29;100020.00;;;15.70
11849;BMP180;5983;49.966;8.052;2022-09-09T02:38:02;100022.00;;;15.70
11849;BMP180;5983;49.966;8.052;2022-09-09T02:40:30;100018.00;;;15.60
11849;BMP180;5983;49.966;8.052;2022-09-09T02:42:59;100020.00;;;15.60
11849;BMP180;5983;49.966;8.052;2022-09-09T02:45:34;100021.00;;;15.70
11849;BMP180;5983;49.966;8.052;2022-09-09T02:48:14;100022.00;;;15.70
11849;BMP180;5983;49.966;8.052;2022-09-09T02:50:54;100023.00;;;15.70
11849;BMP180;5983;49.966;8.052;2022-09-09T02:53:29;100014.00;;;15.70
11849;BMP180;5983;49.966;8.052;2022-09-09T02:56:04;100013.00;;;15.60
11849;BMP180;5983;49.966;8.052;2022-09-09T02:58:32;100009.00;;;15.60
11849;BMP180;5983;49.966;8.052;2022-09-09T03:00:59;99997.00;;;15.60
11849;BMP180;5983;49.966;8.052;2022-09-09T03:03:28;99999.00;;;15.60
11849;BMP180;5983;49.966;8.052;2022-09-09T03:05:55;100001.00;;;15.60
11849;BMP180;5983;49.966;8.052;2022-09-09T03:08:23;100001.00;;;15.60
11849;BMP180;5983;49.966;8.052;2022-09-09T03:10:51;100012.00;;;15.60
11849;BMP180;5983;49.966;8.052;2022-09-09T03:13:19;100010.00;;;15.60
11849;BMP180;5983;49.966;8.052;2022-09-09T03:15:49;100019.00;;;15.60
11849;BMP180;5983;49.966;8.052;2022-09-09T03:18:17;100017.00;;;15.50
11849;BMP180;5983;49.966;8.052;2022-09-09T03:20:46;100020.00;;;15.50
11849;BMP180;5983;49.966;8.052;2022-09-09T03:23:14;100025.00;;;15.50
11849;BMP180;5983;49.966;8.052;2022-09-09T03:25:47;100036.00;;;15.40
11849;BMP180;5983;49.966;8.052;2022-09-09T03:28:14;100033.00;;;15.40
11849;BMP180;5983;49.966;8.052;2022-09-09T03:30:42;100023.00;;;15.30
11849;BMP180;5983;49.966;8.052;2022-09-09T03:33:10;100038.00;;;15.30
11849;BMP180;5983;49.966;8.052;2022-09-09T03:35:38;100030.00;;;15.30
11849;BMP180;5983;49.966;8.052;2022-09-09T03:38:05;100022.00;;;15.30
11849;BMP180;5983;49.966;8.052;2022-09-09T03:40:32;100020.00;;;15.30
11849;BMP180;5983;49.966;8.052;2022-09-09T03:42:58;100025.00;;;15.30
11849;BMP180;5983;49.966;8.052;2022-09-09T03:45:25;100022.00;;;15.30
11849;BMP180;5983;49.966;8.052;2022-09-09T03:47:52;100023.00;;;15.30
11849;BMP180;5983;49.966;8.052;2022-09-09T03:50:21;100012.00;;;15.30
11849;BMP180;5983;49.966;8.052;2022-09-09T03:52:49;100011.00;;;15.30
11849;BMP180;5983;49.966;8.052;2022-09-09T03:55:16;100003.00;;;15.30
11849;BMP180;5983;49.966;8.052;2022-09-09T03:57:43;100006.00;;;15.30
11849;BMP180;5983;49.966;8.052;2022-09-09T04:00:11;100015.00;;;15.30
11849;BMP180;5983;49.966;8.052;2022-09-09T04:02:37;100012.00;;;15.30
11849;BMP180;5983;49.966;8.052;2022-09-09T04:05:06;100006.00;;;15.30
11849;BMP180;5983;49.966;8.052;2022-09-09T04:07:34;100014.00;;;15.40
11849;BMP180;5983;49.966;8.052;2022-09-09T04:10:01;100003.00;;;15.40
11849;BMP180;5983;49.966;8.052;2022-09-09T04:12:27;100018.00;;;15.50
11849;BMP180;5983;49.966;8.052;2022-09-09T04:14:54;100027.00;;;15.50
11849;BMP180;5983;49.966;8.052;2022-09-09T04:17:22;100015.00;;;15.50
11849;BMP180;5983;49.966;8.052;2022-09-09T04:19:49;100018.00;;;15.50
11849;BMP180;5983;49.966;8.052;2022-09-09T04:22:16;100018.00;;;15.50
11849;BMP180;5983;49.966;8.052;2022-09-09T04:24:44;100026.00;;;15.50
11849;BMP180;5983;49.966;8.052;2022-09-09T04:27:11;100019.00;;;15.50
11849;BMP180;5983;49.966;8.052;2022-09-09T04:29:38;100008.00;;;15.40
11849;BMP180;5983;49.966;8.052;2022-09-09T04:32:05;100006.00;;;15.40
11849;BMP180;5983;49.966;8.052;2022-09-09T04:34:32;100021.00;;;15.40
11849;BMP180;5983;49.966;8.052;2022-09-09T04:36:59;100017.00;;;15.40
11849;BMP180;5983;49.966;8.052;2022-09-09T04:39:25;100020.00;;;15.40
11849;BMP180;5983;49.966;8.052;2022-09-09T04:41:54;100021.00;;;15.40
11849;BMP180;5983;49.966;8.052;2022-09-09T04:44:21;100027.00;;;15.40
11849;BMP180;5983;49.966;8.052;2022-09-09T04:46:47;100031.00;;;15.40
11849;BMP180;5983;49.966;8.052;2022-09-09T04:49:14;100033.00;;;15.30
11849;BMP180;5983;49.966;8.052;2022-09-09T04:51:41;100045.00;;;15.30
11849;BMP180;5983;49.966;8.052;2022-09-09T04:54:08;100034.00;;;15.30
11849;BMP180;5983;49.966;8.052;2022-09-09T04:56:35;100042.00;;;15.30
11849;BMP180;5983;49.966;8.052;2022-09-09T04:59:04;100035.00;;;15.30
11849;BMP180;5983;49.966;8.052;2022-09-09T05:01:31;100038.00;;;15.30
11849;BMP180;5983;49.966;8.052;2022-09-09T05:03:58;100045.00;;;15.30
11849;BMP180;5983;49.966;8.052;2022-09-09T05:06:25;100044.00;;;15.20
11849;BMP180;5983;49.966;8.052;2022-09-09T05:08:52;100035.00;;;15.20
11849;BMP180;5983;49.966;8.052;2022-09-09T05:11:21;100049.00;;;15.20
11849;BMP180;5983;49.966;8.052;2022-09-09T05:13:50;100043.00;;;15.20
11849;BMP180;5983;49.966;8.052;2022-09-09T05:16:19;100044.00;;;15.20
11849;BMP180;5983;49.966;8.052;2022-09-09T05:18:47;100044.00;;;15.20
11849;BMP180;5983;49.966;8.052;2022-09-09T05:21:16;100045.00;;;15.20
11849;BMP180;5983;49.966;8.052;2022-09-09T05:23:44;100053.00;;;15.20
11849;BMP180;5983;49.966;8.052;2022-09-09T05:26:15;100048.00;;;15.20
11849;BMP180;5983;49.966;8.052;2022-09-09T05:28:42;100052.00;;;15.30
11849;BMP180;5983;49.966;8.052;2022-09-09T05:31:11;100053.00;;;15.30
11849;BMP180;5983;49.966;8.052;2022-09-09T05:33:42;100056.00;;;15.40
11849;BMP180;5983;49.966;8.052;2022-09-09T05:36:13;100058.00;;;15.50
11849;BMP180;5983;49.966;8.052;2022-09-09T05:38:41;100057.00;;;15.60
11849;BMP180;5983;49.966;8.052;2022-09-09T05:41:09;100049.00;;;15.70
11849;BMP180;5983;49.966;8.052;2022-09-09T05:43:36;100046.00;;;15.70
11849;BMP180;5983;49.966;8.052;2022-09-09T05:46:06;100055.00;;;15.70
11849;BMP180;5983;49.966;8.052;2022-09-09T05:48:36;100055.00;;;15.90
11849;BMP180;5983;49.966;8.052;2022-09-09T05:51:07;100065.00;;;15.90
11849;BMP180;5983;49.966;8.052;2022-09-09T05:53:37;100057.00;;;15.90
11849;BMP180;5983;49.966;8.052;2022-09-09T05:56:06;100060.00;;;15.90
11849;BMP180;5983;49.966;8.052;2022-09-09T05:58:37;100068.00;;;16.10
11849;BMP180;5983;49.966;8.052;2022-09-09T06:01:06;100069.00;;;16.20
11849;BMP180;5983;49.966;8.052;2022-09-09T06:03:38;100078.00;;;16.30
11849;BMP180;5983;49.966;8.052;2022-09-09T06:06:10;100081.00;;;16.30
11849;BMP180;5983;49.966;8.052;2022-09-09T06:08:39;100074.00;;;16.30
11849;BMP180;5983;49.966;8.052;2022-09-09T06:11:16;100080.00;;;16.40
11849;BMP180;5983;49.966;8.052;2022-09-09T06:13:44;100085.00;;;16.40
11849;BMP180;5983;49.966;8.052;2022-09-09T06:16:16;100088.00;;;16.50
11849;BMP180;5983;49.966;8.052;2022-09-09T06:18:45;100076.00;;;16.50
11849;BMP180;5983;49.966;8.052;2022-09-09T06:21:18;100068.00;;;16.60
11849;BMP180;5983;49.966;8.052;2022-09-09T06:23:46;100077.00;;;16.60
11849;BMP180;5983;49.966;8.052;2022-09-09T06:26:18;100073.00;;;16.60
11849;BMP180;5983;49.966;8.052;2022-09-09T06:28:46;100065.00;;;16.60
11849;BMP180;5983;49.966;8.052;2022-09-09T06:31:16;100068.00;;;16.70
11849;BMP180;5983;49.966;8.052;2022-09-09T06:33:51;100067.00;;;16.60
11849;BMP180;5983;49.966;8.052;2022-09-09T06:36:22;100074.00;;;16.60
11849;BMP180;5983;49.966;8.052;2022-09-09T06:38:50;100082.00;;;16.70
11849;BMP180;5983;49.966;8.052;2022-09-09T06:41:23;100070.00;;;16.90
11849;BMP180;5983;49.966;8.052;2022-09-09T06:43:51;100074.00;;;17.10
11849;BMP180;5983;49.966;8.052;2022-09-09T06:46:20;100073.00;;;17.60
11849;BMP180;5983;49.966;8.052;2022-09-09T06:48:48;100061.00;;;18.10
11849;BMP180;5983;49.966;8.052;2022-09-09T06:51:17;100074.00;;;18.40
11849;BMP180;5983;49.966;8.052;2022-09-09T06:53:50;100067.00;;;18.50
11849;BMP180;5983;49.966;8.052;2022-09-09T06:56:25;100069.00;;;18.50
11849;BMP180;5983;49.966;8.052;2022-09-09T06:58:55;100068.00;;;18.40
11849;BMP180;5983;49.966;8.052;2022-09-09T07:01:26;100061.00;;;18.70
11849;BMP180;5983;49.966;8.052;2022-09-09T07:03:55;100080.00;;;19.20
11849;BMP180;5983;49.966;8.052;2022-09-09T07:06:27;100080.00;;;19.60
11849;BMP180;5983;49.966;8.052;2022-09-09T07:08:59;100075.00;;;19.80
11849;BMP180;5983;49.966;8.052;2022-09-09T07:11:29;100068.00;;;19.80
11849;BMP180;5983;49.966;8.052;2022-09-09T07:13:59;100073.00;;;19.90
11849;BMP180;5983;49.966;8.052;2022-09-09T07:16:27;100073.00;;;19.90
11849;BMP180;5983;49.966;8.052;2022-09-09T07:18:55;100075.00;;;19.70
11849;BMP180;5983;49.966;8.052;2022-09-09T07:21:25;100075.00;;;19.60
11849;BMP180;5983;49.966;8.052;2022-09-09T07:23:54;100075.00;;;19.40
11849;BMP180;5983;49.966;8.052;2022-09-09T07:26:24;100076.00;;;19.30
11849;BMP180;5983;49.966;8.052;2022-09-09T07:28:52;100076.00;;;19.10
11849;BMP180;5983;49.966;8.052;2022-09-09T07:31:25;100078.00;;;19.00
11849;BMP180;5983;49.966;8.052;2022-09-09T07:33:53;100086.00;;;18.90
11849;BMP180;5983;49.966;8.052;2022-09-09T07:36:23;100081.00;;;18.90
11849;BMP180;5983;49.966;8.052;2022-09-09T07:38:54;100078.00;;;18.80
11849;BMP180;5983;49.966;8.052;2022-09-09T07:41:26;100088.00;;;18.80
11849;BMP180;5983;49.966;8.052;2022-09-09T07:43:53;100091.00;;;18.90
11849;BMP180;5983;49.966;8.052;2022-09-09T07:46:23;100086.00;;;18.90
11849;BMP180;5983;49.966;8.052;2022-09-09T07:48:53;100091.00;;;19.00
11849;BMP180;5983;49.966;8.052;2022-09-09T07:51:25;100089.00;;;19.00
11849;BMP180;5983;49.966;8.052;2022-09-09T07:53:55;100093.00;;;18.90
11849;BMP180;5983;49.966;8.052;2022-09-09T07:56:26;100090.00;;;18.90
11849;BMP180;5983;49.966;8.052;2022-09-09T07:58:55;100086.00;;;18.90
11849;BMP180;5983;49.966;8.052;2022-09-09T08:01:25;100097.00;;;18.90
11849;BMP180;5983;49.966;8.052;2022-09-09T08:04:04;100100.00;;;18.80
11849;BMP180;5983;49.966;8.052;2022-09-09T08:06:36;100114.00;;;18.80
11849;BMP180;5983;49.966;8.052;2022-09-09T08:09:05;100117.00;;;18.70
11849;BMP180;5983;49.966;8.052;2022-09-09T08:11:35;100113.00;;;18.70
11849;BMP180;5983;49.966;8.052;2022-09-09T08:14:04;100118.00;;;18.80
11849;BMP180;5983;49.966;8.052;2022-09-09T08:16:36;100120.00;;;18.90
11849;BMP180;5983;49.966;8.052;2022-09-09T08:19:07;100120.00;;;19.10
11849;BMP180;5983;49.966;8.052;2022-09-09T08:21:37;100116.00;;;19.10
11849;BMP180;5983;49.966;8.052;2022-09-09T08:24:08;100118.00;;;19.20
11849;BMP180;5983;49.966;8.052;2022-09-09T08:26:40;100117.00;;;19.10
11849;BMP180;5983;49.966;8.052;2022-09-09T08:29:09;100121.00;;;19.10
11849;BMP180;5983;49.966;8.052;2022-09-09T08:31:39;100121.00;;;19.00
11849;BMP180;5983;49.966;8.052;2022-09-09T08:34:08;100108.00;;;19.00
11849;BMP180;5983;49.966;8.052;2022-09-09T08:36:38;100114.00;;;19.00
11849;BMP180;5983;49.966;8.052;2022-09-09T08:39:07;100123.00;;;19.00
11849;BMP180;5983;49.966;8.052;2022-09-09T08:42:06;100128.00;;;19.00
11849;BMP180;5983;49.966;8.052;2022-09-09T08:45:00;100121.00;;;19.10
11849;BMP180;5983;49.966;8.052;2022-09-09T08:47:44;100123.00;;;19.10
11849;BMP180;5983;49.966;8.052;2022-09-09T08:50:23;100129.00;;;19.10
11849;BMP180;5983;49.966;8.052;2022-09-09T08:52:59;100121.00;;;19.20
11849;BMP180;5983;49.966;8.052;2022-09-09T08:55:41;100128.00;;;19.50
11849;BMP180;5983;49.966;8.052;2022-09-09T08:58:14;100131.00;;;19.60
11849;BMP180;5983;49.966;8.052;2022-09-09T09:01:09;100126.00;;;19.70
11849;BMP180;5983;49.966;8.052;2022-09-09T09:03:53;100118.00;;;19.70
11849;BMP180;5983;49.966;8.052;2022-09-09T09:06:45;100124.00;;;19.70
11849;BMP180;5983;49.966;8.052;2022-09-09T09:09:26;100125.00;;;19.70
11849;BMP180;5983;49.966;8.052;2022-09-09T09:11:59;100126.00;;;19.70
11849;BMP180;5983;49.966;8.052;2022-09-09T09:14:30;100128.00;;;19.70
11849;BMP180;5983;49.966;8.052;2022-09-09T09:17:02;100123.00;;;19.80
11849;BMP180;5983;49.966;8.052;2022-09-09T09:19:33;100122.00;;;19.90
11849;BMP180;5983;49.966;8.052;2022-09-09T09:22:10;100115.00;;;19.80
11849;BMP180;5983;49.966;8.052;2022-09-09T09:24:51;100122.00;;;20.00
11849;BMP180;5983;49.966;8.052;2022-09-09T09:27:30;100130.00;;;20.30
11849;BMP180;5983;49.966;8.052;2022-09-09T09:30:05;100118.00;;;20.50
11849;BMP180;5983;49.966;8.052;2022-09-09T09:32:36;100123.00;;;20.50
11849;BMP180;5983;49.966;8.052;2022-09-09T09:35:11;100112.00;;;20.60
11849;BMP180;5983;49.966;8.052;2022-09-09T09:37:41;100133.00;;;20.80
11849;BMP180;5983;49.966;8.052;2022-09-09T09:40:10;100117.00;;;20.90
11849;BMP180;5983;49.966;8.052;2022-09-09T09:42:48;100117.00;;;21.30
11849;BMP180;5983;49.966;8.052;2022-09-09T09:45:28;100125.00;;;21.80
11849;BMP180;5983;49.966;8.052;2022-09-09T09:48:02;100141.00;;;22.10
11849;BMP180;5983;49.966;8.052;2022-09-09T09:50:31;100135.00;;;22.20
11849;BMP180;5983;49.966;8.052;2022-09-09T09:53:02;100117.00;;;22.00
11849;BMP180;5983;49.966;8.052;2022-09-09T09:55:31;100122.00;;;21.90
11849;BMP180;5983;49.966;8.052;2022-09-09T09:58:04;100127.00;;;22.00
11849;BMP180;5983;49.966;8.052;2022-09-09T10:00:33;100128.00;;;22.10
11849;BMP180;5983;49.966;8.052;2022-09-09T10:03:01;100116.00;;;22.20
11849;BMP180;5983;49.966;8.052;2022-09-09T10:05:30;100113.00;;;22.40
11849;BMP180;5983;49.966;8.052;2022-09-09T10:08:09;100111.00;;;22.70
11849;BMP180;5983;49.966;8.052;2022-09-09T10:11:02;100104.00;;;22.90
11849;BMP180;5983;49.966;8.052;2022-09-09T10:13:42;100101.00;;;23.20
11849;BMP180;5983;49.966;8.052;2022-09-09T10:16:32;100109.00;;;23.40
11849;BMP180;5983;49.966;8.052;2022-09-09T10:19:12;100100.00;;;23.60
11849;BMP180;5983;49.966;8.052;2022-09-09T10:25:32;100109.00;;;23.80
11849;BMP180;5983;49.966;8.052;2022-09-09T10:28:30;100110.00;;;23.80
11849;BMP180;5983;49.966;8.052;2022-09-09T10:31:13;100115.00;;;23.80
11849;BMP180;5983;49.966;8.052;2022-09-09T10:33:51;100114.00;;;24.00
11849;BMP180;5983;49.966;8.052;2022-09-09T10:36:25;100111.00;;;24.20
11849;BMP180;5983;49.966;8.052;2022-09-09T10:39:00;100110.00;;;24.30
11849;BMP180;5983;49.966;8.052;2022-09-09T10:41:45;100110.00;;;24.50
11849;BMP180;5983;49.966;8.052;2022-09-09T10:44:36;100099.00;;;24.80
11849;BMP180;5983;49.966;8.052;2022-09-09T10:47:29;100094.00;;;25.00
11849;BMP180;5983;49.966;8.052;2022-09-09T10:50:20;100103.00;;;25.10
11849;BMP180;5983;49.966;8.052;2022-09-09T10:53:01;100090.00;;;25.10
11849;BMP180;5983;49.966;8.052;2022-09-09T10:55:38;100093.00;;;25.10
11849;BMP180;5983;49.966;8.052;2022-09-09T10:58:10;100094.00;;;25.10
11849;BMP180;5983;49.966;8.052;2022-09-09T11:00:44;100114.00;;;25.30
11849;BMP180;5983;49.966;8.052;2022-09-09T11:03:19;100110.00;;;24.70
11849;BMP180;5983;49.966;8.052;2022-09-09T11:05:54;100106.00;;;24.60
11849;BMP180;5983;49.966;8.052;2022-09-09T11:08:26;100102.00;;;24.50
11849;BMP180;5983;49.966;8.052;2022-09-09T11:11:03;100088.00;;;24.70
11849;BMP180;5983;49.966;8.052;2022-09-09T11:13:41;100092.00;;;24.70
11849;BMP180;5983;49.966;8.052;2022-09-09T11:16:22;100093.00;;;24.30
11849;BMP180;5983;49.966;8.052;2022-09-09T11:19:01;100099.00;;;24.00
11849;BMP180;5983;49.966;8.052;2022-09-09T11:21:39;100090.00;;;23.70
11849;BMP180;5983;49.966;8.052;2022-09-09T11:24:14;100089.00;;;23.50
11849;BMP180;5983;49.966;8.052;2022-09-09T11:26:50;100092.00;;;23.10
11849;BMP180;5983;49.966;8.052;2022-09-09T11:30:14;100092.00;;;22.80
11849;BMP180;5983;49.966;8.052;2022-09-09T11:33:25;100093.00;;;22.50
11849;BMP180;5983;49.966;8.052;2022-09-09T11:39:35;100106.00;;;22.20
11849;BMP180;5983;49.966;8.052;2022-09-09T11:42:07;100112.00;;;22.10
11849;BMP180;5983;49.966;8.052;2022-09-09T11:44:34;100115.00;;;21.90
11849;BMP180;5983;49.966;8.052;2022-09-09T11:47:03;100117.00;;;21.80
11849;BMP180;5983;49.966;8.052;2022-09-09T11:49:41;100104.00;;;21.60
11849;BMP180;5983;49.966;8.052;2022-09-09T11:52:18;100119.00;;;21.50
11849;BMP180;5983;49.966;8.052;2022-09-09T11:54:49;100112.00;;;21.40
11849;BMP180;5983;49.966;8.052;2022-09-09T11:57:29;100126.00;;;21.30
11849;BMP180;5983;49.966;8.052;2022-09-09T11:59:57;100127.00;;;21.30
11849;BMP180;5983;49.966;8.052;2022-09-09T12:02:27;100120.00;;;21.10
11849;BMP180;5983;49.966;8.052;2022-09-09T12:05:02;100125.00;;;21.00
11849;BMP180;5983;49.966;8.052;2022-09-09T12:07:38;100116.00;;;21.00
11849;BMP180;5983;49.966;8.052;2022-09-09T12:10:23;100121.00;;;20.90
11849;BMP180;5983;49.966;8.052;2022-09-09T12:12:52;100129.00;;;20.80
11849;BMP180;5983;49.966;8.052;2022-09-09T12:15:24;100128.00;;;20.70
11849;BMP180;5983;49.966;8.052;2022-09-09T12:17:56;100119.00;;;20.60
11849;BMP180;5983;49.966;8.052;2022-09-09T12:20:32;100116.00;;;20.50
11849;BMP180;5983;49.966;8.052;2022-09-09T12:23:22;100118.00;;;20.60
11849;BMP180;5983;49.966;8.052;2022-09-09T12:26:06;100113.00;;;21.00
11849;BMP180;5983;49.966;8.052;2022-09-09T12:28:48;100112.00;;;21.70
11849;BMP180;5983;49.966;8.052;2022-09-09T12:31:26;100119.00;;;22.30
11849;BMP180;5983;49.966;8.052;2022-09-09T12:34:09;100126.00;;;22.70
11849;BMP180;5983;49.966;8.052;2022-09-09T12:36:37;100117.00;;;23.10
11849;BMP180;5983;49.966;8.052;2022-09-09T12:39:18;100115.00;;;23.20
11849;BMP180;5983;49.966;8.052;2022-09-09T12:41:54;100113.00;;;23.20
11849;BMP180;5983;49.966;8.052;2022-09-09T12:44:23;100117.00;;;23.10
11849;BMP180;5983;49.966;8.052;2022-09-09T12:46:52;100098.00;;;23.10
11849;BMP180;5983;49.966;8.052;2022-09-09T12:49:30;100104.00;;;23.40
11849;BMP180;5983;49.966;8.052;2022-09-09T12:52:05;100096.00;;;23.60
11849;BMP180;5983;49.966;8.052;2022-09-09T12:54:45;100094.00;;;23.90
11849;BMP180;5983;49.966;8.052;2022-09-09T12:57:35;100100.00;;;24.20
11849;BMP180;5983;49.966;8.052;2022-09-09T13:00:16;100105.00;;;24.10
11849;BMP180;5983;49.966;8.052;2022-09-09T13:02:51;100103.00;;;24.30
11849;BMP180;5983;49.966;8.052;2022-09-09T13:05:23;100107.00;;;24.20
11849;BMP180;5983;49.966;8.052;2022-09-09T13:07:50;100096.00;;;24.00
11849;BMP180;5983;49.966;8.052;2022-09-09T13:10:24;100093.00;;;23.80
11849;BMP180;5983;49.966;8.052;2022-09-09T13:12:54;100087.00;;;23.80
11849;BMP180;5983;49.966;8.052;2022-09-09T13:15:27;100096.00;;;23.90
11849;BMP180;5983;49.966;8.052;2022-09-09T13:17:58;100089.00;;;23.80
11849;BMP180;5983;49.966;8.052;2022-09-09T13:20:27;100086.00;;;23.70
11849;BMP180;5983;49.966;8.052;2022-09-09T13:22:57;100094.00;;;23.40
11849;BMP180;5983;49.966;8.052;2022-09-09T13:25:26;100100.00;;;22.90
11849;BMP180;5983;49.966;8.052;2022-09-09T13:28:01;100102.00;;;22.40
11849;BMP180;5983;49.966;8.052;2022-09-09T13:30:31;100106.00;;;22.20
11849;BMP180;5983;49.966;8.052;2022-09-09T13:33:06;100097.00;;;21.80
11849;BMP180;5983;49.966;8.052;2022-09-09T13:35:34;100092.00;;;21.60
11849;BMP180;5983;49.966;8.052;2022-09-09T13:38:09;100114.00;;;21.40
11849;BMP180;5983;49.966;8.052;2022-09-09T13:40:38;100111.00;;;21.30
11849;BMP180;5983;49.966;8.052;2022-09-09T13:43:18;100112.00;;;21.10
11849;BMP180;5983;49.966;8.052;2022-09-09T13:45:54;100108.00;;;21.00
11849;BMP180;5983;49.966;8.052;2022-09-09T13:48:25;100116.00;;;20.90
11849;BMP180;5983;49.966;8.052;2022-09-09T13:50:58;100110.00;;;20.80
11849;BMP180;5983;49.966;8.052;2022-09-09T13:53:25;100105.00;;;20.60
11849;BMP180;5983;49.966;8.052;2022-09-09T13:55:53;100113.00;;;20.50
11849;BMP180;5983;49.966;8.052;2022-09-09T13:58:24;100110.00;;;20.40
11849;BMP180;5983;49.966;8.052;2022-09-09T14:00:55;100109.00;;;20.30
11849;BMP180;5983;49.966;8.052;2022-09-09T14:03:25;100110.00;;;20.20
11849;BMP180;5983;49.966;8.052;2022-09-09T14:05:56;100094.00;;;20.10
11849;BMP180;5983;49.966;8.052;2022-09-09T14:08:26;100092.00;;;20.10
11849;BMP180;5983;49.966;8.052;2022-09-09T14:11:02;100081.00;;;20.10
11849;BMP180;5983;49.966;8.052;2022-09-09T14:13:34;100088.00;;;20.00
11849;BMP180;5983;49.966;8.052;2022-09-09T14:16:09;100081.00;;;20.10
11849;BMP180;5983;49.966;8.052;2022-09-09T14:18:39;100091.00;;;20.10
11849;BMP180;5983;49.966;8.052;2022-09-09T14:21:06;100101.00;;;20.10
11849;BMP180;5983;49.966;8.052;2022-09-09T14:23:53;100083.00;;;20.10
11849;BMP180;5983;49.966;8.052;2022-09-09T14:26:25;100082.00;;;20.10
11849;BMP180;5983;49.966;8.052;2022-09-09T14:29:00;100074.00;;;20.10
11849;BMP180;5983;49.966;8.052;2022-09-09T14:31:30;100080.00;;;20.10
11849;BMP180;5983;49.966;8.052;2022-09-09T14:33:59;100090.00;;;20.00
11849;BMP180;5983;49.966;8.052;2022-09-09T14:36:26;100094.00;;;20.10
11849;BMP180;5983;49.966;8.052;2022-09-09T14:38:53;100100.00;;;20.20
11849;BMP180;5983;49.966;8.052;2022-09-09T14:41:20;100081.00;;;20.30
11849;BMP180;5983;49.966;8.052;2022-09-09T14:43:48;100084.00;;;20.40
11849;BMP180;5983;49.966;8.052;2022-09-09T14:46:20;100077.00;;;20.50
11849;BMP180;5983;49.966;8.052;2022-09-09T14:48:47;100081.00;;;20.60
11849;BMP180;5983;49.966;8.052;2022-09-09T14:51:19;100075.00;;;20.60